Time;durP1;ratioP1;P1;durP2;ratioP2;P2;SDS_P1;SDS_P2;PMS_P1;PMS_P2;Temp;Humidity;BMP_temperature;BMP_pressure;BME280_temperature;BME280_humidity;BME280_pressure;Samples;Min_cycle;Max_cycle;Signal;HPM_P1;HPM_P2
2024/03/12 00:01:10;;;;;;;;;;;;;;;19.05;63.11;100379.56;7388219;19;1480;-38
2024/03/12 00:03:42;;;;;;;;;;;;;;;19.11;62.94;100367.41;7388874;19;1236;-37
2024/03/12 00:06:10;;;;;;;;;;;;;;;18.96;63.05;100358.97;7389091;19;1212;-38
2024/03/12 00:08:39;;;;;;;;;;;;;;;18.84;63.42;100347.59;7387884;19;1563;-38
2024/03/12 00:11:08;;;;;;;;;;;;;;;18.81;63.41;100356.75;7388577;19;1538;-38
2024/03/12 00:13:36;;;;;;;;;;;;;;;18.69;63.78;100331.94;7386335;19;1862;-37
2024/03/12 00:16:05;;;;;;;;;;;;;;;18.76;63.57;100347.44;7388105;19;1565;-38
2024/03/12 00:18:36;;;;;;;;;;;;;;;18.92;63.30;100328.97;7387050;19;1580;-38
2024/03/12 00:21:05;;;;;;;;;;;;;;;18.79;63.78;100331.09;7387038;19;1480;-38
2024/03/12 00:23:34;;;;;;;;;;;;;;;18.72;63.83;100316.56;7387346;19;1442;-39
2024/03/12 00:26:03;;;;;;;;;;;;;;;18.77;63.41;100303.59;7389749;19;1262;-38
2024/03/12 00:28:33;;;;;;;;;;;;;;;18.65;63.78;100306.44;7380639;19;1827;-38
2024/03/12 00:31:01;;;;;;;;;;;;;;;18.79;63.51;100298.94;7395284;19;1547;-38
2024/03/12 00:33:30;;;;;;;;;;;;;;;19.07;62.97;100295.34;7391950;19;1861;-38
2024/03/12 00:36:01;;;;;;;;;;;;;;;19.02;63.04;100296.75;7395886;19;1271;-38
2024/03/12 00:38:31;;;;;;;;;;;;;;;18.95;63.20;100299.19;7394511;19;1588;-38
2024/03/12 00:40:59;;;;;;;;;;;;;;;18.84;63.24;100294.00;7394286;19;1527;-38
2024/03/12 00:43:28;;;;;;;;;;;;;;;18.81;63.21;100294.31;7394040;19;1493;-38
2024/03/12 00:45:57;;;;;;;;;;;;;;;18.68;63.82;100292.78;7393841;19;1486;-38
2024/03/12 00:48:27;;;;;;;;;;;;;;;18.80;63.47;100295.28;7393324;19;1594;-38
2024/03/12 00:50:56;;;;;;;;;;;;;;;18.96;63.03;100300.91;7393905;19;1436;-38
2024/03/12 00:53:27;;;;;;;;;;;;;;;18.78;63.63;100340.09;7391618;19;1852;-38
2024/03/12 00:55:55;;;;;;;;;;;;;;;18.83;63.51;100292.34;7394207;19;1368;-38
2024/03/12 00:58:24;;;;;;;;;;;;;;;18.74;63.48;100301.19;7394311;19;1485;-37
2024/03/12 01:00:53;;;;;;;;;;;;;;;18.65;63.68;100276.97;7394479;19;1145;-38
2024/03/12 01:03:22;;;;;;;;;;;;;;;18.71;63.63;100288.13;7393505;19;1555;-38
2024/03/12 01:05:53;;;;;;;;;;;;;;;18.96;62.98;100274.09;7392871;19;1563;-38
2024/03/12 01:08:22;;;;;;;;;;;;;;;18.92;63.37;100278.06;7393544;19;1477;-38
2024/03/12 01:10:53;;;;;;;;;;;;;;;18.86;63.34;100284.00;7393792;19;1552;-38
2024/03/12 01:13:21;;;;;;;;;;;;;;;18.89;63.46;100289.06;7391190;19;1849;-38
2024/03/12 01:15:52;;;;;;;;;;;;;;;18.82;63.19;100275.44;7393780;19;1512;-38
2024/03/12 01:18:21;;;;;;;;;;;;;;;18.65;63.85;100293.06;7393888;19;1533;-38
2024/03/12 01:20:50;;;;;;;;;;;;;;;18.77;63.42;100282.19;7393959;19;1390;-37
2024/03/12 01:23:18;;;;;;;;;;;;;;;19.04;62.91;100290.28;7392396;19;1315;-38
2024/03/12 01:25:47;;;;;;;;;;;;;;;18.86;63.51;100286.66;7392961;19;1703;-38
2024/03/12 01:28:18;;;;;;;;;;;;;;;18.81;63.31;100267.53;7377581;19;1570;-38
2024/03/12 01:30:46;;;;;;;;;;;;;;;18.79;63.33;100262.31;7392720;19;1433;-38
2024/03/12 01:33:18;;;;;;;;;;;;;;;18.71;63.36;100270.22;7389551;19;1849;-44
2024/03/12 01:35:46;;;;;;;;;;;;;;;18.72;63.75;100277.25;7391317;19;1508;-38
2024/03/12 01:38:15;;;;;;;;;;;;;;;18.90;63.48;100273.84;7390243;19;1570;-38
2024/03/12 01:40:44;;;;;;;;;;;;;;;18.82;64.10;100272.75;7389752;19;1414;-38
2024/03/12 01:43:12;;;;;;;;;;;;;;;18.66;64.35;100276.00;7391727;19;1498;-38
2024/03/12 01:45:45;;;;;;;;;;;;;;;18.63;64.11;100262.91;7391425;19;1492;-38
2024/03/12 01:48:15;;;;;;;;;;;;;;;18.64;63.95;100267.28;7391506;19;1108;-38
2024/03/12 01:50:43;;;;;;;;;;;;;;;18.73;64.03;100254.00;7391644;19;1444;-37
2024/03/12 01:53:12;;;;;;;;;;;;;;;19.09;63.49;100268.41;7387985;19;1862;-38
2024/03/12 01:55:42;;;;;;;;;;;;;;;19.06;63.55;100237.38;7389412;19;1208;-38
2024/03/12 01:58:10;;;;;;;;;;;;;;;18.89;63.92;100256.91;7390264;19;1432;-39
2024/03/12 02:00:39;;;;;;;;;;;;;;;18.80;63.91;100258.66;7390887;19;1564;-37
2024/03/12 02:03:10;;;;;;;;;;;;;;;18.84;64.08;100252.00;7390762;19;1420;-37
2024/03/12 02:05:40;;;;;;;;;;;;;;;19.37;62.85;100245.09;7387525;19;1473;-37
2024/03/12 02:08:09;;;;;;;;;;;;;;;19.65;62.09;100237.00;7390847;19;1208;-37
2024/03/12 02:10:38;;;;;;;;;;;;;;;19.62;62.39;100238.16;7389850;19;1505;-37
2024/03/12 02:13:06;;;;;;;;;;;;;;;19.77;62.15;100227.75;7390839;19;1840;-37
2024/03/12 02:15:35;;;;;;;;;;;;;;;19.90;61.71;100223.88;7388697;19;1510;-37
2024/03/12 02:18:07;;;;;;;;;;;;;;;19.98;61.66;100222.09;7390786;19;1500;-37
2024/03/12 02:20:39;;;;;;;;;;;;;;;19.97;61.53;100214.19;7390362;19;1492;-37
2024/03/12 02:23:08;;;;;;;;;;;;;;;20.08;61.56;100221.16;7386061;19;1580;-37
2024/03/12 02:25:39;;;;;;;;;;;;;;;20.04;61.36;100220.63;7388695;19;1431;-38
2024/03/12 02:28:07;;;;;;;;;;;;;;;20.11;61.33;100219.00;7389820;19;1547;-37
2024/03/12 02:30:36;;;;;;;;;;;;;;;20.03;61.48;100198.31;7382863;19;1677;-37
2024/03/12 02:33:05;;;;;;;;;;;;;;;20.14;61.25;100199.91;7389645;19;1847;-37
2024/03/12 02:35:34;;;;;;;;;;;;;;;20.18;61.28;100201.28;7367181;19;1392;-38
2024/03/12 02:38:03;;;;;;;;;;;;;;;20.26;61.20;100200.50;7388045;19;1236;-37
2024/03/12 02:40:31;;;;;;;;;;;;;;;20.26;61.25;100203.19;7388782;19;1817;-37
2024/03/12 02:43:02;;;;;;;;;;;;;;;20.24;61.03;100222.13;7388413;19;1606;-38
2024/03/12 02:45:31;;;;;;;;;;;;;;;20.25;61.04;100217.59;7388127;19;1420;-37
2024/03/12 02:47:59;;;;;;;;;;;;;;;20.32;61.08;100223.19;7388286;19;1287;-38
2024/03/12 02:50:29;;;;;;;;;;;;;;;20.40;61.03;100231.28;7385995;19;1491;-37
2024/03/12 02:52:58;;;;;;;;;;;;;;;20.37;60.85;100226.22;7389100;19;1849;-37
2024/03/12 02:55:27;;;;;;;;;;;;;;;20.36;60.76;100217.34;7387530;19;1770;-37
2024/03/12 02:57:56;;;;;;;;;;;;;;;20.33;60.97;100217.63;7386070;19;2396;-38
2024/03/12 03:00:28;;;;;;;;;;;;;;;20.38;60.91;100211.81;7388515;19;1632;-37
2024/03/12 03:02:57;;;;;;;;;;;;;;;20.36;60.98;100209.28;7389104;19;1476;-38
2024/03/12 03:05:25;;;;;;;;;;;;;;;20.41;60.73;100233.84;7387529;19;1474;-37
2024/03/12 03:07:54;;;;;;;;;;;;;;;20.43;60.57;100239.88;7381485;19;1630;-38
2024/03/12 03:10:23;;;;;;;;;;;;;;;20.45;60.57;100219.09;7249745;19;15388;-37
2024/03/12 03:12:51;;;;;;;;;;;;;;;20.40;60.67;100231.28;7377222;19;1884;-37
2024/03/12 03:15:20;;;;;;;;;;;;;;;20.17;61.28;100229.09;7386395;19;1544;-38
2024/03/12 03:17:52;;;;;;;;;;;;;;;20.06;61.70;100207.91;7386989;19;1510;-38
2024/03/12 03:20:21;;;;;;;;;;;;;;;20.08;61.78;100219.31;7386793;19;1253;-38
2024/03/12 03:22:50;;;;;;;;;;;;;;;20.09;61.70;100223.69;7388269;19;1264;-38
2024/03/12 03:25:18;;;;;;;;;;;;;;;20.01;61.85;100197.59;7386661;19;1188;-38
2024/03/12 03:27:47;;;;;;;;;;;;;;;20.02;61.76;100203.84;7385776;19;1369;-38
2024/03/12 03:30:17;;;;;;;;;;;;;;;19.88;61.75;100182.94;7370247;19;2344;-38
2024/03/12 03:32:45;;;;;;;;;;;;;;;20.05;61.68;100200.84;7387214;19;1397;-37
2024/03/12 03:35:17;;;;;;;;;;;;;;;20.03;61.85;100201.00;7387481;19;1224;-38
2024/03/12 03:37:46;;;;;;;;;;;;;;;20.10;61.66;100203.91;7386864;19;1235;-38
2024/03/12 03:40:22;;;;;;;;;;;;;;;20.08;61.83;100199.69;7386545;19;1458;-38
2024/03/12 03:42:51;;;;;;;;;;;;;;;20.10;61.65;100203.06;7387510;19;1560;-38
2024/03/12 03:45:20;;;;;;;;;;;;;;;20.11;61.61;100194.84;7386368;19;1373;-38
2024/03/12 03:47:49;;;;;;;;;;;;;;;20.06;61.74;100194.47;7386707;19;1268;-38
2024/03/12 03:50:20;;;;;;;;;;;;;;;20.08;61.66;100213.13;7387338;19;1228;-38
2024/03/12 03:52:48;;;;;;;;;;;;;;;20.06;61.74;100202.53;7386855;19;1529;-37
2024/03/12 03:55:17;;;;;;;;;;;;;;;20.08;61.70;100211.28;7385228;19;1848;-38
2024/03/12 03:57:43;;;;;;;;;;;;;;;20.06;61.63;100186.44;7387003;19;1635;-37
2024/03/12 04:00:15;;;;;;;;;;;;;;;19.95;62.04;100184.81;7385422;19;1485;-38
2024/03/12 04:02:44;;;;;;;;;;;;;;;19.74;62.53;100206.63;7387221;19;1525;-38
2024/03/12 04:05:13;;;;;;;;;;;;;;;19.59;62.76;100202.75;7386942;19;1535;-37
2024/03/12 04:07:44;;;;;;;;;;;;;;;19.40;62.86;100206.44;7384102;19;1319;-37
2024/03/12 04:10:13;;;;;;;;;;;;;;;19.36;63.06;100216.63;7384837;19;1357;-38
2024/03/12 04:12:44;;;;;;;;;;;;;;;19.27;63.15;100212.16;7385758;19;1500;-38
2024/03/12 04:15:13;;;;;;;;;;;;;;;19.19;63.54;100202.19;7383584;19;1868;-38
2024/03/12 04:17:43;;;;;;;;;;;;;;;19.16;63.39;100207.84;7385308;19;1539;-37
2024/03/12 04:20:12;;;;;;;;;;;;;;;19.13;63.72;100201.94;7383277;19;1519;-43
2024/03/12 04:22:43;;;;;;;;;;;;;;;19.04;63.85;100212.56;7382955;19;2347;-38
2024/03/12 04:25:15;;;;;;;;;;;;;;;19.09;63.83;100201.41;7384337;19;1600;-38
2024/03/12 04:27:44;;;;;;;;;;;;;;;18.67;64.19;100151.81;7383871;19;1409;-37
2024/03/12 04:30:13;;;;;;;;;;;;;;;19.05;64.07;100208.88;7370657;19;1355;-38
2024/03/12 04:32:40;;;;;;;;;;;;;;;19.18;64.00;100199.63;7382555;19;1792;-38
2024/03/12 04:35:09;;;;;;;;;;;;;;;19.39;63.31;100210.94;7382687;19;1858;-37
2024/03/12 04:37:38;;;;;;;;;;;;;;;19.25;63.71;100198.06;7384423;19;1421;-38
2024/03/12 04:40:08;;;;;;;;;;;;;;;19.19;63.69;100179.91;7385973;19;1615;-38
2024/03/12 04:42:39;;;;;;;;;;;;;;;19.12;63.64;100208.28;7385974;19;1408;-37
2024/03/12 04:45:09;;;;;;;;;;;;;;;19.01;63.97;100194.09;7385385;19;1457;-37
2024/03/12 04:47:41;;;;;;;;;;;;;;;18.96;64.12;100204.44;7384689;19;1614;-38
2024/03/12 04:50:13;;;;;;;;;;;;;;;18.90;64.34;100199.69;7382958;19;1616;-38
2024/03/12 04:52:42;;;;;;;;;;;;;;;18.88;64.30;100205.19;7382784;19;1816;-37
2024/03/12 04:55:12;;;;;;;;;;;;;;;19.08;63.96;100191.69;7383332;19;2124;-37
2024/03/12 04:57:43;;;;;;;;;;;;;;;19.24;63.63;100197.22;7384429;19;1256;-38
2024/03/12 05:00:18;;;;;;;;;;;;;;;19.44;63.27;100202.47;7384627;19;1545;-38
2024/03/12 05:02:47;;;;;;;;;;;;;;;19.29;63.64;100220.88;7383789;19;1625;-38
2024/03/12 05:05:18;;;;;;;;;;;;;;;19.16;63.81;100210.53;7384350;19;1607;-37
2024/03/12 05:07:46;;;;;;;;;;;;;;;19.04;64.00;100222.47;7383338;19;1537;-38
2024/03/12 05:10:15;;;;;;;;;;;;;;;18.94;64.30;100211.78;7383446;19;1477;-38
2024/03/12 05:12:46;;;;;;;;;;;;;;;18.84;64.51;100201.13;7385627;19;1455;-39
2024/03/12 05:15:17;;;;;;;;;;;;;;;18.78;64.72;100198.13;7387758;19;1845;-45
2024/03/12 05:17:48;;;;;;;;;;;;;;;19.00;64.25;100200.47;7388168;19;2301;-38
2024/03/12 05:20:17;;;;;;;;;;;;;;;19.31;63.82;100192.09;7392866;19;1465;-38
2024/03/12 05:22:46;;;;;;;;;;;;;;;19.33;63.72;100206.19;7393009;19;1550;-39
2024/03/12 05:25:22;;;;;;;;;;;;;;;19.39;63.61;100205.56;7392114;19;1552;-38
2024/03/12 05:27:53;;;;;;;;;;;;;;;19.15;63.32;100191.91;7392347;19;1365;-39
2024/03/12 05:30:23;;;;;;;;;;;;;;;18.66;62.14;100209.06;7371736;19;1351;-39
2024/03/12 05:32:53;;;;;;;;;;;;;;;18.73;64.11;100219.19;7388881;19;1495;-39
2024/03/12 05:35:25;;;;;;;;;;;;;;;18.77;63.89;100194.63;7388222;19;1842;-38
2024/03/12 05:40:43;;;;;;;;;;;;;;;18.86;63.50;100195.59;7384857;19;1734;-38
2024/03/12 05:48:35;;;;;;;;;;;;;;;19.29;62.66;100215.53;7389368;19;1575;-38
2024/03/12 05:51:04;;;;;;;;;;;;;;;19.38;62.33;100246.81;7387338;19;1494;-39
2024/03/12 05:53:32;;;;;;;;;;;;;;;19.44;62.15;100213.19;7387111;19;1245;-38
2024/03/12 05:56:01;;;;;;;;;;;;;;;19.47;61.87;100207.50;7387867;19;1449;-39
2024/03/12 05:58:32;;;;;;;;;;;;;;;19.45;62.03;100212.19;7387617;19;1616;-38
2024/03/12 06:01:02;;;;;;;;;;;;;;;19.44;62.25;100203.28;7389285;19;1327;-39
2024/03/12 06:03:30;;;;;;;;;;;;;;;19.46;62.01;100203.97;7389751;19;1221;-39
2024/03/12 06:05:59;;;;;;;;;;;;;;;19.46;61.99;100214.72;7392109;19;1197;-38
2024/03/12 06:08:27;;;;;;;;;;;;;;;19.51;62.16;100224.13;7390903;19;1365;-39
2024/03/12 06:10:56;;;;;;;;;;;;;;;19.51;62.05;100218.78;7391359;19;1568;-39
2024/03/12 06:13:24;;;;;;;;;;;;;;;19.48;62.05;100227.97;7391072;19;1513;-38
2024/03/12 06:15:57;;;;;;;;;;;;;;;19.52;62.04;100209.72;7389341;19;1890;-40
2024/03/12 06:18:25;;;;;;;;;;;;;;;19.54;62.10;100210.44;7391710;19;1537;-41
2024/03/12 06:20:54;;;;;;;;;;;;;;;19.55;61.91;100221.00;7391477;19;1469;-39
2024/03/12 06:23:23;;;;;;;;;;;;;;;19.53;62.05;100211.41;7391104;19;1323;-38
2024/03/12 06:25:51;;;;;;;;;;;;;;;19.54;62.00;100223.84;7390321;19;1279;-39
2024/03/12 06:28:21;;;;;;;;;;;;;;;19.51;62.02;100224.13;7390615;19;1253;-38
2024/03/12 06:30:50;;;;;;;;;;;;;;;19.51;61.97;100224.97;7375417;19;1679;-47
2024/03/12 06:33:21;;;;;;;;;;;;;;;19.52;62.05;100209.72;7390549;19;1410;-38
2024/03/12 06:35:50;;;;;;;;;;;;;;;19.53;62.00;100216.78;7388973;19;1845;-39
2024/03/12 06:38:20;;;;;;;;;;;;;;;19.51;61.98;100229.50;7390962;19;1454;-39
2024/03/12 06:40:49;;;;;;;;;;;;;;;19.53;62.03;100212.25;7392038;19;1476;-39
2024/03/12 06:43:18;;;;;;;;;;;;;;;19.51;61.98;100226.81;7390362;19;1550;-39
2024/03/12 06:45:46;;;;;;;;;;;;;;;19.56;61.95;100221.84;7390806;19;1579;-39
2024/03/12 06:48:19;;;;;;;;;;;;;;;19.55;61.92;100233.56;7391141;19;1488;-38
2024/03/12 06:50:50;;;;;;;;;;;;;;;19.57;61.81;100228.88;7390862;19;1615;-39
2024/03/12 06:53:19;;;;;;;;;;;;;;;19.60;61.83;100233.97;7390774;19;1189;-39
2024/03/12 06:55:48;;;;;;;;;;;;;;;19.60;61.96;100240.16;7388627;19;1872;-38
2024/03/12 06:58:21;;;;;;;;;;;;;;;19.59;61.63;100257.25;7391565;19;1249;-38
2024/03/12 07:00:50;;;;;;;;;;;;;;;19.63;61.71;100255.09;7390439;19;1774;-39
2024/03/12 07:03:21;;;;;;;;;;;;;;;19.69;61.42;100241.06;7389027;19;1739;-39
2024/03/12 07:05:54;;;;;;;;;;;;;;;19.74;61.24;100244.19;7390074;19;1546;-39
2024/03/12 07:08:25;;;;;;;;;;;;;;;19.83;60.87;100234.38;7390829;19;1525;-39
2024/03/12 07:10:55;;;;;;;;;;;;;;;19.65;61.47;100226.28;7390049;19;1163;-39
2024/03/12 07:13:26;;;;;;;;;;;;;;;19.46;61.87;100243.38;7389204;19;1486;-39
2024/03/12 07:15:54;;;;;;;;;;;;;;;19.27;62.36;100238.97;7384938;19;2395;-38
2024/03/12 07:18:23;;;;;;;;;;;;;;;19.11;62.78;100228.06;7388861;19;1352;-39
2024/03/12 07:20:54;;;;;;;;;;;;;;;19.03;62.92;100232.31;7388192;19;1421;-39
2024/03/12 07:23:23;;;;;;;;;;;;;;;19.03;62.90;100226.94;7389866;19;1196;-38
2024/03/12 07:25:52;;;;;;;;;;;;;;;19.05;63.18;100229.50;7387972;19;1305;-41
2024/03/12 07:28:21;;;;;;;;;;;;;;;19.08;63.37;100230.03;7381697;19;1564;-40
2024/03/12 07:30:49;;;;;;;;;;;;;;;19.44;62.63;100224.75;7372802;19;1523;-40
2024/03/12 07:33:18;;;;;;;;;;;;;;;19.72;62.02;100221.19;7388057;19;1458;-41
2024/03/12 07:35:47;;;;;;;;;;;;;;;19.67;63.21;100241.22;7385604;19;1853;-41
2024/03/12 07:38:18;;;;;;;;;;;;;;;19.24;64.24;100183.00;7388997;19;1559;-40
2024/03/12 07:40:46;;;;;;;;;;;;;;;19.37;64.79;100225.50;7388669;19;1629;-40
2024/03/12 07:43:15;;;;;;;;;;;;;;;19.27;66.35;100233.59;7388692;19;1283;-40
2024/03/12 07:45:49;;;;;;;;;;;;;;;19.21;66.90;100229.69;7386528;19;2335;-40
2024/03/12 07:48:22;;;;;;;;;;;;;;;19.15;66.61;100218.72;7382342;19;1482;-40
2024/03/12 07:50:50;;;;;;;;;;;;;;;19.08;66.35;100213.13;7372014;19;1484;-40
2024/03/12 07:53:22;;;;;;;;;;;;;;;19.08;66.64;100213.13;7383654;19;1497;-40
2024/03/12 07:55:56;;;;;;;;;;;;;;;19.03;66.47;100202.00;7382008;19;1841;-40
2024/03/12 07:58:28;;;;;;;;;;;;;;;19.33;65.60;100191.94;7382893;19;1078;-40
2024/03/12 08:00:57;;;;;;;;;;;;;;;19.60;64.72;100212.50;7384514;19;1114;-40
2024/03/12 08:03:26;;;;;;;;;;;;;;;19.56;64.66;100195.88;7382646;19;1835;-40
2024/03/12 08:05:54;;;;;;;;;;;;;;;19.48;64.89;100210.03;7382894;19;1481;-40
2024/03/12 08:08:25;;;;;;;;;;;;;;;19.37;64.79;100199.53;7382682;19;1481;-39
2024/03/12 08:10:55;;;;;;;;;;;;;;;19.23;65.20;100192.84;7384131;19;1544;-40
2024/03/12 08:13:25;;;;;;;;;;;;;;;19.19;65.24;100207.53;7383733;19;1430;-40
2024/03/12 08:15:54;;;;;;;;;;;;;;;19.14;65.23;100203.63;7382205;19;1865;-40
2024/03/12 08:18:22;;;;;;;;;;;;;;;19.03;65.38;100200.16;7383379;19;1470;-40
2024/03/12 08:20:52;;;;;;;;;;;;;;;19.04;65.43;100193.81;7382791;19;1207;-40
2024/03/12 08:23:20;;;;;;;;;;;;;;;19.34;64.63;100198.97;7384316;19;1179;-39
2024/03/12 08:25:51;;;;;;;;;;;;;;;19.60;63.93;100191.88;7383334;19;1631;-40
2024/03/12 08:28:20;;;;;;;;;;;;;;;19.61;63.71;100182.00;7383597;19;1635;-41
2024/03/12 08:30:49;;;;;;;;;;;;;;;19.44;64.05;100189.06;7369909;19;1432;-39
2024/03/12 08:33:17;;;;;;;;;;;;;;;19.26;64.46;100175.63;7382141;19;1462;-40
2024/03/12 08:35:46;;;;;;;;;;;;;;;19.22;64.76;100183.13;7383266;19;1853;-41
2024/03/12 08:38:14;;;;;;;;;;;;;;;19.16;64.75;100172.16;7383459;19;1466;-40
2024/03/12 08:40:43;;;;;;;;;;;;;;;19.11;64.87;100163.75;7382983;19;1417;-40
2024/03/12 08:43:15;;;;;;;;;;;;;;;18.94;65.25;100174.28;7383762;19;1212;-39
2024/03/12 08:45:44;;;;;;;;;;;;;;;19.09;64.80;100177.28;7382984;19;1191;-39
2024/03/12 08:48:13;;;;;;;;;;;;;;;19.37;64.17;100175.38;7383826;19;1386;-41
2024/03/12 08:50:41;;;;;;;;;;;;;;;19.68;63.40;100180.38;7389786;19;1677;-40
2024/03/12 08:53:11;;;;;;;;;;;;;;;19.56;63.68;100158.31;7389668;19;1505;-40
2024/03/12 08:55:40;;;;;;;;;;;;;;;19.35;64.12;100160.47;7386879;19;1845;-40
2024/03/12 08:58:08;;;;;;;;;;;;;;;19.18;64.36;100191.59;7389820;19;1465;-40
2024/03/12 09:00:39;;;;;;;;;;;;;;;19.09;64.76;100177.28;7388991;19;1232;-40
2024/03/12 09:03:08;;;;;;;;;;;;;;;18.98;64.92;100172.97;7388014;19;1421;-40
2024/03/12 09:05:37;;;;;;;;;;;;;;;18.96;65.07;100183.00;7387176;19;1560;-40
2024/03/12 09:08:06;;;;;;;;;;;;;;;18.97;64.91;100182.00;7387326;19;1319;-40
2024/03/12 09:10:36;;;;;;;;;;;;;;;19.20;64.29;100211.91;7387517;19;1414;-40
2024/03/12 09:13:05;;;;;;;;;;;;;;;19.55;63.50;100206.75;7388511;19;1520;-40
2024/03/12 09:15:33;;;;;;;;;;;;;;;19.67;62.88;100181.38;7384748;19;1863;-40
2024/03/12 09:18:06;;;;;;;;;;;;;;;19.48;63.36;100193.94;7385882;19;1244;-40
2024/03/12 09:20:36;;;;;;;;;;;;;;;19.28;63.86;100219.22;7385260;19;2351;-39
2024/03/12 09:23:05;;;;;;;;;;;;;;;19.11;64.49;100206.63;7392832;19;994;-39
2024/03/12 09:25:33;;;;;;;;;;;;;;;19.13;64.22;100220.72;7392497;19;1647;-39
2024/03/12 09:28:04;;;;;;;;;;;;;;;18.97;64.70;100218.69;7392916;19;1568;-40
2024/03/12 09:30:34;;;;;;;;;;;;;;;18.97;64.56;100219.50;7377034;19;2320;-40
2024/03/12 09:33:05;;;;;;;;;;;;;;;19.44;63.77;100216.69;7392087;19;1179;-40
2024/03/12 09:35:33;;;;;;;;;;;;;;;19.92;62.43;100211.16;7390959;19;1882;-39
2024/03/12 09:38:02;;;;;;;;;;;;;;;19.92;62.38;100216.50;7390344;19;1536;-39
2024/03/12 09:40:32;;;;;;;;;;;;;;;19.65;62.89;100210.19;7389451;19;1757;-40
2024/03/12 09:43:03;;;;;;;;;;;;;;;19.38;63.81;100211.94;7390021;19;1614;-40
2024/03/12 09:45:32;;;;;;;;;;;;;;;19.20;64.55;100233.38;7389851;19;1187;-40
2024/03/12 09:48:01;;;;;;;;;;;;;;;19.05;64.75;100230.31;7390002;19;2465;-40
2024/03/12 09:50:33;;;;;;;;;;;;;;;19.01;64.83;100222.75;7390677;19;1184;-40
2024/03/12 09:53:02;;;;;;;;;;;;;;;18.99;64.77;100212.16;7380911;19;1242;-40
2024/03/12 09:55:31;;;;;;;;;;;;;;;19.22;64.55;100201.91;7390662;19;1877;-39
2024/03/12 09:58:01;;;;;;;;;;;;;;;19.66;63.20;100214.56;7385417;19;1429;-39
2024/03/12 10:00:30;;;;;;;;;;;;;;;19.81;62.68;100210.38;7386681;19;1581;-39
2024/03/12 10:02:59;;;;;;;;;;;;;;;19.63;63.31;100207.66;7381180;19;1535;-40
2024/03/12 10:05:28;;;;;;;;;;;;;;;19.36;64.01;100195.16;7389063;19;1575;-40
2024/03/12 10:08:14;;;;;;;;;;;;;;;19.25;64.54;100220.34;7387121;19;1604;-39
2024/03/12 10:10:44;;;;;;;;;;;;;;;19.12;64.66;100237.78;7387864;19;1554;-39
2024/03/12 10:13:17;;;;;;;;;;;;;;;19.13;64.55;100220.72;7389223;19;1472;-42
2024/03/12 10:15:53;;;;;;;;;;;;;;;19.07;64.53;100217.63;7386702;19;1863;-39
2024/03/12 10:18:22;;;;;;;;;;;;;;;19.37;64.28;100218.28;7387011;19;1539;-40
2024/03/12 10:20:51;;;;;;;;;;;;;;;19.75;63.12;100210.97;7385200;19;1506;-40
2024/03/12 10:23:22;;;;;;;;;;;;;;;19.86;62.62;100201.88;7383247;19;1780;-40
2024/03/12 10:25:51;;;;;;;;;;;;;;;19.64;63.26;100212.03;7385160;19;1481;-38
2024/03/12 10:28:25;;;;;;;;;;;;;;;19.46;63.68;100206.66;7387117;19;1591;-40
2024/03/12 10:30:53;;;;;;;;;;;;;;;19.33;63.90;100211.53;7369647;19;1208;-40
2024/03/12 10:33:22;;;;;;;;;;;;;;;19.23;64.24;100200.88;7382831;19;1532;-40
2024/03/12 10:35:51;;;;;;;;;;;;;;;19.10;64.73;100211.13;7382613;19;1854;-40
2024/03/12 10:38:31;;;;;;;;;;;;;;;19.07;64.78;100206.06;7379565;19;1812;-40
2024/03/12 10:41:00;;;;;;;;;;;;;;;19.33;64.10;100216.06;7385163;19;1952;-40
2024/03/12 10:43:29;;;;;;;;;;;;;;;19.78;62.90;100212.53;7388069;19;1453;-40
2024/03/12 10:45:57;;;;;;;;;;;;;;;20.00;62.35;100224.63;7385888;19;1513;-40
2024/03/12 10:48:27;;;;;;;;;;;;;;;19.85;62.56;100211.75;7387878;19;1547;-40
2024/03/12 10:50:56;;;;;;;;;;;;;;;19.62;63.09;100195.25;7389043;19;1549;-40
2024/03/12 10:53:26;;;;;;;;;;;;;;;19.47;63.77;100199.47;7388034;19;1449;-40
2024/03/12 10:55:57;;;;;;;;;;;;;;;19.36;64.20;100199.66;7387400;19;1863;-40
2024/03/12 10:58:28;;;;;;;;;;;;;;;19.25;64.24;100200.75;7388003;19;1022;-40
2024/03/12 11:00:57;;;;;;;;;;;;;;;19.15;63.47;100187.41;7388667;19;1232;-37
2024/03/12 11:03:25;;;;;;;;;;;;;;;19.20;63.91;100189.63;7387839;19;1567;-37
2024/03/12 11:05:56;;;;;;;;;;;;;;;19.50;62.78;100199.16;7384303;19;1176;-37
2024/03/12 11:08:26;;;;;;;;;;;;;;;19.79;61.69;100203.47;7385895;19;1374;-37
2024/03/12 11:10:59;;;;;;;;;;;;;;;19.61;61.84;100193.56;7384886;19;1370;-37
2024/03/12 11:13:27;;;;;;;;;;;;;;;19.51;62.10;100189.28;7387214;19;1559;-37
2024/03/12 11:15:58;;;;;;;;;;;;;;;19.43;61.89;100185.50;7384787;19;1882;-37
2024/03/12 11:18:38;;;;;;;;;;;;;;;19.33;62.08;100173.19;7386344;19;1405;-37
2024/03/12 11:21:07;;;;;;;;;;;;;;;19.28;62.22;100187.03;7387013;19;1390;-37
2024/03/12 11:23:35;;;;;;;;;;;;;;;19.22;62.42;100184.97;7384401;19;2571;-37
2024/03/12 11:26:10;;;;;;;;;;;;;;;19.32;62.20;100166.97;7385378;19;1075;-37
2024/03/12 11:28:49;;;;;;;;;;;;;;;19.57;61.45;100176.09;7212819;19;3415130;-37
2024/03/12 11:31:19;;;;;;;;;;;;;;;19.30;60.21;100122.53;7376024;19;1148;-37
2024/03/12 11:33:49;;;;;;;;;;;;;;;19.15;61.52;100167.81;7388721;19;1534;-38
2024/03/12 11:36:39;;;;;;;;;;;;;;;18.97;61.10;100171.28;7386406;19;1844;-37
2024/03/12 11:39:11;;;;;;;;;;;;;;;18.99;61.84;100174.66;7386538;19;2288;-37
2024/03/12 11:41:54;;;;;;;;;;;;;;;18.93;61.84;100161.84;7388219;19;1554;-37
2024/03/12 11:44:38;;;;;;;;;;;;;;;18.88;62.56;100161.47;7388358;19;1454;-37
2024/03/12 11:47:10;;;;;;;;;;;;;;;19.05;61.79;100166.00;7388439;19;2385;-37
2024/03/12 11:49:39;;;;;;;;;;;;;;;19.30;61.31;100157.38;7387104;19;1519;-37
2024/03/12 11:52:08;;;;;;;;;;;;;;;19.29;60.88;100156.53;7384852;19;1615;-37
2024/03/12 11:54:44;;;;;;;;;;;;;;;19.13;61.27;100137.63;7383507;19;1394;-37
2024/03/12 11:57:21;;;;;;;;;;;;;;;19.04;61.49;100148.25;7382564;19;1860;-37
2024/03/12 11:59:50;;;;;;;;;;;;;;;19.09;61.56;100145.13;7383410;19;1429;-38
2024/03/12 12:02:23;;;;;;;;;;;;;;;18.98;61.97;100148.88;7384539;19;1493;-37
2024/03/12 12:04:54;;;;;;;;;;;;;;;18.85;62.41;100156.41;7383857;19;1382;-37
2024/03/12 12:07:23;;;;;;;;;;;;;;;18.93;62.28;100139.59;7383928;19;1140;-38
2024/03/12 12:09:52;;;;;;;;;;;;;;;19.23;61.68;100147.28;7383844;19;1533;-45
2024/03/12 12:12:21;;;;;;;;;;;;;;;19.46;61.00;100138.78;7384464;19;1107;-37
2024/03/12 12:14:52;;;;;;;;;;;;;;;19.28;61.36;100144.16;7383769;19;1446;-38
2024/03/12 12:17:27;;;;;;;;;;;;;;;19.00;61.99;100146.88;7384547;19;1904;-37
2024/03/12 12:20:13;;;;;;;;;;;;;;;19.08;62.00;100143.44;7387773;19;1129;-38
2024/03/12 12:22:45;;;;;;;;;;;;;;;19.13;61.96;100140.31;7387719;19;991;-39
2024/03/12 12:25:15;;;;;;;;;;;;;;;19.01;62.12;100148.56;7387811;19;1532;-37
2024/03/12 12:27:44;;;;;;;;;;;;;;;18.92;62.60;100125.34;7387272;19;1528;-37
2024/03/12 12:30:14;;;;;;;;;;;;;;;19.12;61.95;100150.19;7386769;19;1690;-37
2024/03/12 12:32:45;;;;;;;;;;;;;;;19.41;61.34;100141.06;7373562;19;1021;-37
2024/03/12 12:35:15;;;;;;;;;;;;;;;19.30;61.08;100147.53;7388101;19;1641;-37
2024/03/12 12:37:47;;;;;;;;;;;;;;;19.11;61.89;100132.41;7386769;19;1848;-37
2024/03/12 12:40:17;;;;;;;;;;;;;;;19.18;61.83;100132.63;7387939;19;1569;-37
2024/03/12 12:42:47;;;;;;;;;;;;;;;19.14;61.92;100147.34;7388003;19;1598;-37
2024/03/12 12:45:16;;;;;;;;;;;;;;;19.01;62.30;100132.47;7388237;19;1478;-37
2024/03/12 12:47:52;;;;;;;;;;;;;;;18.87;62.64;100130.31;7387703;19;1626;-37
2024/03/12 12:50:31;;;;;;;;;;;;;;;18.98;62.52;100139.97;7386964;19;1580;-37
2024/03/12 12:53:02;;;;;;;;;;;;;;;19.30;61.67;100147.53;7387698;19;1042;-37
2024/03/12 12:55:31;;;;;;;;;;;;;;;19.54;61.12;100140.72;7388213;19;979;-37
2024/03/12 12:58:00;;;;;;;;;;;;;;;19.25;61.60;100144.44;7385775;19;1919;-36
2024/03/12 13:00:28;;;;;;;;;;;;;;;19.18;61.78;100143.34;7386531;19;1623;-37
2024/03/12 13:03:11;;;;;;;;;;;;;;;19.13;61.97;100133.09;7387375;19;1508;-37
2024/03/12 13:05:44;;;;;;;;;;;;;;;19.01;62.21;100145.03;7386657;19;1805;-37
2024/03/12 13:08:23;;;;;;;;;;;;;;;18.93;62.23;100136.91;7387240;19;1540;-37
2024/03/12 13:11:04;;;;;;;;;;;;;;;18.84;62.75;100146.66;7385101;19;1832;-37